createdAt,value
2023-04-07T00:02:17.629Z,5.50
2023-04-07T00:04:46.210Z,5.30
2023-04-07T00:07:14.400Z,5.80
2023-04-07T00:09:43.720Z,5.70
2023-04-07T00:12:13.685Z,4.90
2023-04-07T00:14:41.952Z,4.20
2023-04-07T00:17:11.251Z,4.20
2023-04-07T00:19:42.490Z,3.70
2023-04-07T00:22:10.687Z,3.50
2023-04-07T00:24:42.965Z,3.90
2023-04-07T00:27:11.825Z,3.00
2023-04-07T00:29:39.954Z,3.10
2023-04-07T00:32:09.080Z,2.80
2023-04-07T00:34:37.208Z,3.20
2023-04-07T00:37:08.654Z,2.80
2023-04-07T00:39:37.180Z,2.50
2023-04-07T00:42:08.266Z,2.20
2023-04-07T00:44:36.528Z,1.80
2023-04-07T00:47:05.324Z,2.20
2023-04-07T00:49:33.807Z,2.00
2023-04-07T00:52:01.835Z,2.40
2023-04-07T00:54:30.442Z,2.20
2023-04-07T00:56:58.987Z,1.60
2023-04-07T00:59:27.315Z,2.00
2023-04-07T01:02:13.313Z,1.70
2023-04-07T01:07:23.786Z,1.70
2023-04-07T01:10:04.016Z,0.70
2023-04-07T01:15:23.238Z,2.00
2023-04-07T01:18:01.543Z,2.10
2023-04-07T01:20:30.492Z,2.50
2023-04-07T01:23:04.356Z,2.60
2023-04-07T01:25:53.414Z,2.00
2023-04-07T01:28:42.265Z,2.00
2023-04-07T01:31:10.877Z,2.00
2023-04-07T01:33:39.150Z,2.90
2023-04-07T01:36:08.533Z,4.40
2023-04-07T01:38:37.659Z,2.40
2023-04-07T01:41:06.067Z,2.10
2023-04-07T01:43:34.974Z,2.10
2023-04-07T01:46:03.314Z,1.90
2023-04-07T01:48:32.384Z,1.70
2023-04-07T01:51:00.845Z,2.10
2023-04-07T01:53:29.435Z,1.80
2023-04-07T01:55:57.881Z,1.80
2023-04-07T01:58:26.908Z,2.10
2023-04-07T02:00:55.418Z,2.20
2023-04-07T02:03:32.090Z,1.90
2023-04-07T02:06:03.139Z,2.10
2023-04-07T02:08:32.260Z,2.00
2023-04-07T02:11:01.211Z,1.80
2023-04-07T02:13:32.191Z,1.80
2023-04-07T02:16:01.684Z,1.80
2023-04-07T02:18:33.982Z,1.70
2023-04-07T02:21:02.409Z,1.90
2023-04-07T02:23:30.664Z,1.80
2023-04-07T02:25:59.038Z,1.60
2023-04-07T02:28:27.214Z,1.70
2023-04-07T02:30:55.629Z,1.60
2023-04-07T02:33:25.582Z,1.80
2023-04-07T02:35:53.814Z,1.80
2023-04-07T02:38:23.337Z,1.70
2023-04-07T02:40:51.547Z,1.70
2023-04-07T02:43:21.026Z,1.70
2023-04-07T02:45:49.119Z,2.00
2023-04-07T02:48:18.139Z,1.70
2023-04-07T02:50:46.301Z,1.80
2023-04-07T02:53:19.704Z,2.00
2023-04-07T02:55:47.662Z,1.20
2023-04-07T02:58:15.696Z,1.60
2023-04-07T03:00:45.478Z,1.60
2023-04-07T03:03:23.802Z,1.40
2023-04-07T03:06:00.144Z,2.00
2023-04-07T03:08:28.421Z,1.70
2023-04-07T03:10:58.621Z,1.80
2023-04-07T03:13:30.981Z,1.90
2023-04-07T03:16:06.901Z,2.00
2023-04-07T03:18:45.617Z,1.80
2023-04-07T03:21:14.152Z,1.90
2023-04-07T03:23:42.867Z,2.00
2023-04-07T03:26:11.348Z,2.30
2023-04-07T03:28:39.909Z,2.10
2023-04-07T03:31:09.315Z,1.90
2023-04-07T03:33:37.657Z,1.90
2023-04-07T03:36:06.342Z,1.80
2023-04-07T03:38:36.165Z,2.10
2023-04-07T03:41:05.521Z,2.30
2023-04-07T03:43:36.249Z,2.20
2023-04-07T03:46:04.862Z,1.10
2023-04-07T03:48:34.068Z,2.30
2023-04-07T03:51:06.406Z,2.20
2023-04-07T03:53:35.853Z,0.80
2023-04-07T03:56:14.534Z,2.60
2023-04-07T03:58:50.984Z,1.00
2023-04-07T04:01:31.981Z,3.00
2023-04-07T04:04:06.212Z,2.20
2023-04-07T04:06:37.145Z,3.00
2023-04-07T04:09:22.752Z,1.30
2023-04-07T04:11:51.225Z,4.00
2023-04-07T04:14:22.095Z,4.10
2023-04-07T04:16:55.499Z,4.20
2023-04-07T04:19:33.282Z,4.20
2023-04-07T04:22:04.277Z,4.20
2023-04-07T04:24:36.142Z,2.00
2023-04-07T04:27:05.458Z,4.20
2023-04-07T04:29:33.877Z,3.30
2023-04-07T04:32:02.959Z,3.60
2023-04-07T04:34:36.714Z,3.70
2023-04-07T04:37:06.610Z,1.70
2023-04-07T04:39:34.900Z,3.00
2023-04-07T04:42:05.844Z,2.90
2023-04-07T04:44:36.892Z,3.30
2023-04-07T04:47:14.713Z,3.30
2023-04-07T04:49:42.889Z,3.60
2023-04-07T04:52:11.209Z,4.00
2023-04-07T04:54:43.253Z,3.80
2023-04-07T04:57:12.323Z,3.40
2023-04-07T04:59:42.631Z,3.90
2023-04-07T05:02:12.608Z,3.50
2023-04-07T05:04:41.712Z,3.00
2023-04-07T05:07:20.592Z,3.20
2023-04-07T05:09:50.695Z,3.40
2023-04-07T05:12:19.137Z,3.80
2023-04-07T05:14:50.777Z,3.40
2023-04-07T05:17:21.201Z,3.10
2023-04-07T05:19:49.570Z,3.20
2023-04-07T05:22:28.749Z,2.60
2023-04-07T05:24:57.669Z,2.80
2023-04-07T05:27:26.061Z,2.70
2023-04-07T05:29:55.756Z,2.70
2023-04-07T05:32:28.415Z,3.10
2023-04-07T05:34:57.572Z,3.20
2023-04-07T05:37:32.199Z,3.00
2023-04-07T05:40:02.463Z,2.50
2023-04-07T05:42:31.405Z,2.70
2023-04-07T05:45:00.037Z,2.90
2023-04-07T05:47:28.818Z,3.20
2023-04-07T05:49:57.917Z,2.90
2023-04-07T05:52:26.984Z,2.90
2023-04-07T05:55:06.463Z,3.20
2023-04-07T05:57:36.630Z,2.90
2023-04-07T06:00:05.714Z,2.90
2023-04-07T06:02:46.456Z,2.70
2023-04-07T06:05:23.433Z,3.30
2023-04-07T06:07:55.603Z,0.90
2023-04-07T06:10:24.335Z,2.30
2023-04-07T06:12:52.721Z,2.40
2023-04-07T06:15:21.009Z,2.40
2023-04-07T06:17:51.003Z,2.80
2023-04-07T06:20:21.944Z,2.80
2023-04-07T06:22:55.084Z,3.00
2023-04-07T06:25:23.999Z,2.90
2023-04-07T06:27:54.341Z,2.90
2023-04-07T06:30:25.054Z,2.50
2023-04-07T06:32:54.107Z,2.70
2023-04-07T06:35:22.368Z,3.10
2023-04-07T06:37:54.581Z,2.70
2023-04-07T06:40:23.772Z,3.10
2023-04-07T06:42:52.385Z,2.90
2023-04-07T06:45:42.965Z,3.40
2023-04-07T06:48:11.193Z,3.00
2023-04-07T06:50:40.953Z,3.20
2023-04-07T06:53:09.295Z,2.70
2023-04-07T06:55:37.546Z,2.90
2023-04-07T06:58:05.979Z,2.90
2023-04-07T07:00:36.083Z,3.00
2023-04-07T07:03:08.826Z,3.40
2023-04-07T07:05:37.531Z,3.10
2023-04-07T07:08:06.057Z,2.60
2023-04-07T07:10:34.242Z,3.10
2023-04-07T07:13:02.505Z,3.00
2023-04-07T07:15:31.169Z,3.40
2023-04-07T07:17:59.407Z,3.30
2023-04-07T07:20:27.857Z,2.80
2023-04-07T07:22:56.817Z,3.10
2023-04-07T07:25:26.969Z,2.70
2023-04-07T07:27:55.147Z,3.10
2023-04-07T07:30:24.725Z,2.70
2023-04-07T07:32:55.101Z,2.60
2023-04-07T07:35:25.453Z,3.10
2023-04-07T07:37:55.393Z,2.80
2023-04-07T07:40:23.786Z,2.70
2023-04-07T07:42:52.823Z,3.00
2023-04-07T07:45:20.957Z,2.80
2023-04-07T07:47:49.085Z,3.20
2023-04-07T07:50:17.715Z,2.70
2023-04-07T07:52:46.322Z,2.70
2023-04-07T07:55:17.033Z,2.60
2023-04-07T07:57:45.924Z,3.00
2023-04-07T08:00:14.199Z,2.60
2023-04-07T08:02:44.872Z,2.70
2023-04-07T08:05:13.250Z,3.00
2023-04-07T08:07:43.248Z,2.70
2023-04-07T08:10:11.404Z,2.90
2023-04-07T08:12:48.070Z,2.80
2023-04-07T08:15:16.851Z,2.90
2023-04-07T08:17:45.346Z,3.10
2023-04-07T08:20:13.532Z,2.70
2023-04-07T08:22:43.906Z,2.90
2023-04-07T08:25:11.976Z,2.90
2023-04-07T08:27:42.519Z,2.70
2023-04-07T08:30:13.288Z,3.10
2023-04-07T08:32:46.645Z,3.10
2023-04-07T08:35:14.686Z,2.70
2023-04-07T08:37:44.378Z,3.10
2023-04-07T08:40:13.034Z,3.30
2023-04-07T08:42:43.225Z,3.00
2023-04-07T08:45:11.452Z,2.80
2023-04-07T08:47:40.527Z,3.20
2023-04-07T08:50:10.261Z,2.70
2023-04-07T08:52:46.251Z,3.50
2023-04-07T08:55:14.394Z,3.00
2023-04-07T08:57:44.141Z,2.70
2023-04-07T09:00:13.157Z,3.60
2023-04-07T09:02:47.975Z,3.40
2023-04-07T09:05:16.362Z,3.10
2023-04-07T09:07:44.983Z,3.00
2023-04-07T09:10:13.764Z,3.80
2023-04-07T09:12:43.048Z,3.70
2023-04-07T09:15:11.205Z,4.00
2023-04-07T09:17:45.364Z,3.10
2023-04-07T09:20:14.295Z,3.40
2023-04-07T09:22:43.790Z,3.50
2023-04-07T09:25:17.789Z,3.20
2023-04-07T09:27:59.436Z,2.90
2023-04-07T09:30:29.171Z,3.10
2023-04-07T09:32:58.769Z,3.10
2023-04-07T09:35:28.606Z,2.80
2023-04-07T09:38:09.908Z,2.60
2023-04-07T09:40:38.619Z,2.80
2023-04-07T09:43:07.786Z,3.40
2023-04-07T09:45:37.514Z,3.10
2023-04-07T09:48:08.920Z,3.30
2023-04-07T09:50:42.233Z,3.20
2023-04-07T09:53:11.142Z,3.50
2023-04-07T09:55:40.016Z,3.30
2023-04-07T09:58:08.635Z,2.90
2023-04-07T10:00:37.432Z,3.10
2023-04-07T10:03:06.104Z,3.00
2023-04-07T10:05:36.759Z,3.30
2023-04-07T10:08:06.880Z,2.70
2023-04-07T10:10:36.554Z,2.90
2023-04-07T10:13:31.631Z,3.20
2023-04-07T10:16:03.025Z,2.70
2023-04-07T10:18:32.954Z,3.10
2023-04-07T10:21:03.435Z,2.70
2023-04-07T10:23:50.639Z,3.20
2023-04-07T10:26:20.083Z,2.70
2023-04-07T10:28:50.159Z,2.80
2023-04-07T10:31:20.535Z,2.70
2023-04-07T10:33:54.067Z,2.80
2023-04-07T10:36:22.409Z,2.70
2023-04-07T10:39:08.578Z,2.60
2023-04-07T10:41:38.207Z,2.90
2023-04-07T10:44:07.025Z,2.70
2023-04-07T10:46:52.005Z,2.40
2023-04-07T11:01:27.004Z,2.30
2023-04-07T11:03:55.596Z,2.90
2023-04-07T11:06:22.432Z,3.00
2023-04-07T11:08:51.909Z,2.50
2023-04-07T11:11:34.809Z,2.40
2023-04-07T11:14:01.861Z,2.80
2023-04-07T11:16:55.826Z,2.30
2023-04-07T11:19:23.229Z,2.60
2023-04-07T11:21:51.073Z,3.10
2023-04-07T11:24:39.516Z,2.80
2023-04-07T11:27:11.863Z,2.50
2023-04-07T11:29:39.332Z,2.90
2023-04-07T11:32:06.812Z,2.40
2023-04-07T11:34:36.623Z,2.50
2023-04-07T11:37:28.235Z,2.60
2023-04-07T11:39:56.022Z,2.60
2023-04-07T11:42:32.702Z,2.50
2023-04-07T11:44:59.990Z,2.50
2023-04-07T11:47:37.568Z,2.30
2023-04-07T11:50:05.212Z,2.00
2023-04-07T11:52:46.523Z,2.20
2023-04-07T11:55:26.506Z,2.80
2023-04-07T11:57:53.284Z,2.40
2023-04-07T12:00:20.534Z,2.20
2023-04-07T12:02:47.860Z,2.10
2023-04-07T12:05:16.646Z,2.40
2023-04-07T12:07:52.422Z,2.40
2023-04-07T12:10:23.159Z,2.30
2023-04-07T12:12:55.240Z,1.80
2023-04-07T12:15:25.361Z,1.80
2023-04-07T12:17:52.796Z,1.80
2023-04-07T12:20:26.787Z,2.30
2023-04-07T12:22:53.719Z,1.90
2023-04-07T12:25:20.564Z,1.60
2023-04-07T12:27:51.773Z,1.40
2023-04-07T12:30:19.287Z,1.30
2023-04-07T12:32:47.067Z,1.30
2023-04-07T12:35:17.568Z,1.00
2023-04-07T12:37:46.162Z,1.30
2023-04-07T12:40:15.327Z,1.20
2023-04-07T12:42:41.998Z,1.40
2023-04-07T12:45:08.898Z,1.40
2023-04-07T12:47:36.551Z,1.50
2023-04-07T12:50:03.677Z,1.70
2023-04-07T12:52:36.273Z,1.50
2023-04-07T12:55:03.235Z,1.60
2023-04-07T12:57:30.591Z,1.90
2023-04-07T12:59:57.380Z,1.90
2023-04-07T13:02:25.198Z,1.40
2023-04-07T13:04:52.405Z,3.30
2023-04-07T13:07:19.316Z,2.90
2023-04-07T13:09:46.019Z,3.10
2023-04-07T13:12:13.334Z,2.60
2023-04-07T13:15:00.767Z,1.90
2023-04-07T13:17:29.228Z,3.40
2023-04-07T13:19:56.020Z,2.90
2023-04-07T13:22:24.611Z,2.70
2023-04-07T13:24:51.715Z,2.50
2023-04-07T13:27:18.501Z,2.80
2023-04-07T13:29:45.257Z,2.90
2023-04-07T13:32:14.797Z,2.80
2023-04-07T13:34:41.712Z,2.20
2023-04-07T13:37:08.410Z,2.70
2023-04-07T13:39:36.473Z,2.50
2023-04-07T13:42:04.090Z,2.30
2023-04-07T13:44:33.215Z,2.60
2023-04-07T13:47:00.324Z,3.10
2023-04-07T13:49:28.513Z,2.70
2023-04-07T13:51:55.363Z,2.90
2023-04-07T13:54:22.231Z,2.70
2023-04-07T13:56:50.117Z,2.50
2023-04-07T13:59:16.887Z,2.80
2023-04-07T14:01:43.891Z,2.60
2023-04-07T14:04:11.725Z,2.80
2023-04-07T14:06:38.577Z,2.50
2023-04-07T14:09:06.059Z,2.60
2023-04-07T14:11:34.761Z,2.80
2023-04-07T14:14:12.322Z,3.00
2023-04-07T14:16:40.158Z,2.80
2023-04-07T14:19:07.054Z,3.50
2023-04-07T14:21:36.863Z,2.40
2023-04-07T14:24:03.984Z,3.00
2023-04-07T14:26:30.669Z,3.30
2023-04-07T14:28:57.623Z,3.20
2023-04-07T14:31:24.297Z,2.90
2023-04-07T14:33:51.336Z,3.10
2023-04-07T14:36:18.489Z,3.10
2023-04-07T14:38:45.406Z,2.40
2023-04-07T14:41:12.523Z,2.50
2023-04-07T14:43:39.255Z,2.90
2023-04-07T14:46:06.543Z,2.70
2023-04-07T14:48:34.885Z,2.40
2023-04-07T14:51:09.287Z,2.40
2023-04-07T14:53:37.275Z,3.00
2023-04-07T14:56:07.160Z,2.30
2023-04-07T14:58:39.961Z,2.40
2023-04-07T15:01:06.944Z,2.60
2023-04-07T15:03:35.175Z,2.20
2023-04-07T15:06:06.093Z,2.30
2023-04-07T15:08:32.786Z,2.00
2023-04-07T15:10:59.737Z,2.70
2023-04-07T15:13:27.089Z,2.50
2023-04-07T15:15:53.798Z,2.30
2023-04-07T15:18:21.184Z,2.30
2023-04-07T15:20:48.765Z,2.30
2023-04-07T15:23:18.758Z,2.20
2023-04-07T15:25:46.958Z,2.50
2023-04-07T15:28:14.090Z,2.70
2023-04-07T15:30:42.356Z,2.20
2023-04-07T15:33:09.408Z,2.50
2023-04-07T15:35:36.250Z,2.40
2023-04-07T15:38:03.122Z,2.80
2023-04-07T15:40:29.743Z,2.50
2023-04-07T15:42:56.500Z,2.70
2023-04-07T15:45:23.261Z,3.00
2023-04-07T15:47:52.128Z,2.60
2023-04-07T15:50:19.328Z,2.50
2023-04-07T15:52:46.300Z,3.00
2023-04-07T15:55:13.080Z,2.60
2023-04-07T15:57:40.390Z,2.60
2023-04-07T16:00:07.893Z,2.70
2023-04-07T16:02:37.584Z,2.70
2023-04-07T16:05:04.940Z,3.00
2023-04-07T16:07:31.699Z,2.90
2023-04-07T16:09:58.434Z,2.80
2023-04-07T16:12:25.293Z,2.70
2023-04-07T16:14:51.968Z,2.70
2023-04-07T16:17:20.576Z,2.40
2023-04-07T16:19:48.498Z,2.80
2023-04-07T16:22:15.127Z,2.30
2023-04-07T16:24:42.420Z,2.80
2023-04-07T16:27:09.251Z,2.70
2023-04-07T16:29:36.273Z,2.70
2023-04-07T16:32:03.909Z,2.30
2023-04-07T16:34:30.812Z,2.70
2023-04-07T16:37:01.135Z,2.80
2023-04-07T16:39:29.555Z,2.30
2023-04-07T16:41:56.632Z,2.90
2023-04-07T16:44:28.788Z,2.50
2023-04-07T16:46:55.550Z,2.30
2023-04-07T16:49:23.298Z,2.80
2023-04-07T16:51:50.216Z,1.90
2023-04-07T16:54:16.931Z,2.30
2023-04-07T16:56:43.682Z,2.60
2023-04-07T16:59:10.776Z,2.10
2023-04-07T17:01:42.445Z,2.50
2023-04-07T17:04:10.261Z,2.60
2023-04-07T17:06:37.048Z,2.40
2023-04-07T17:09:03.682Z,2.40
2023-04-07T17:11:30.367Z,2.40
2023-04-07T17:13:57.784Z,2.70
2023-04-07T17:16:25.025Z,2.50
2023-04-07T17:18:52.020Z,2.60
2023-04-07T17:21:18.782Z,2.80
2023-04-07T17:23:48.933Z,2.80
2023-04-07T17:26:16.088Z,2.70
2023-04-07T17:28:45.044Z,2.60
2023-04-07T17:31:13.909Z,2.60
2023-04-07T17:33:41.540Z,2.40
2023-04-07T17:36:08.340Z,3.60
2023-04-07T17:38:35.791Z,4.30
2023-04-07T17:41:02.671Z,5.10
2023-04-07T17:43:33.274Z,4.80
2023-04-07T17:45:59.991Z,4.80
2023-04-07T17:48:27.079Z,4.10
2023-04-07T17:50:53.696Z,4.50
2023-04-07T17:53:20.643Z,4.40
2023-04-07T17:55:51.464Z,5.30
2023-04-07T17:58:22.546Z,7.20
2023-04-07T18:00:50.133Z,7.60
2023-04-07T18:03:18.812Z,7.00
2023-04-07T18:05:46.301Z,6.50
2023-04-07T18:08:12.943Z,7.20
2023-04-07T18:10:39.812Z,6.20
2023-04-07T18:13:07.282Z,8.00
2023-04-07T18:15:34.405Z,6.60
2023-04-07T18:18:01.882Z,7.50
2023-04-07T18:20:30.964Z,7.40
2023-04-07T18:22:57.964Z,8.50
2023-04-07T18:25:25.124Z,8.70
2023-04-07T18:27:52.753Z,9.30
2023-04-07T18:30:19.669Z,9.40
2023-04-07T18:32:46.749Z,8.80
2023-04-07T18:35:13.552Z,10.10
2023-04-07T18:37:43.656Z,11.40
2023-04-07T18:40:11.802Z,11.10
2023-04-07T18:42:40.162Z,10.40
2023-04-07T18:45:08.210Z,11.70
2023-04-07T18:47:35.065Z,13.10
2023-04-07T18:50:02.784Z,13.90
2023-04-07T18:52:29.756Z,13.30
2023-04-07T18:54:57.559Z,12.70
2023-04-07T18:57:24.294Z,12.40
2023-04-07T18:59:52.288Z,14.00
2023-04-07T19:02:19.155Z,12.90
2023-04-07T19:04:46.129Z,11.80
2023-04-07T19:07:13.104Z,11.80
2023-04-07T19:09:41.836Z,10.20
2023-04-07T19:12:08.922Z,10.00
2023-04-07T19:14:35.730Z,6.00
2023-04-07T19:17:04.092Z,6.70
2023-04-07T19:19:31.699Z,6.70
2023-04-07T19:22:01.958Z,6.00
2023-04-07T19:24:29.033Z,6.70
2023-04-07T19:26:56.299Z,6.40
2023-04-07T19:29:23.149Z,6.30
2023-04-07T19:31:52.296Z,6.90
2023-04-07T19:34:19.409Z,7.40
2023-04-07T19:36:46.182Z,8.00
2023-04-07T19:39:13.098Z,7.60
2023-04-07T19:41:41.339Z,8.50
2023-04-07T19:44:08.100Z,7.20
2023-04-07T19:46:35.980Z,7.20
2023-04-07T19:49:03.642Z,6.70
2023-04-07T19:51:31.179Z,5.80
2023-04-07T19:53:57.945Z,5.90
2023-04-07T19:56:24.715Z,6.10
2023-04-07T19:58:51.628Z,6.10
2023-04-07T20:01:18.568Z,5.70
2023-04-07T20:03:46.121Z,6.00
2023-04-07T20:06:14.323Z,5.70
2023-04-07T20:08:42.990Z,5.20
2023-04-07T20:11:12.097Z,5.20
2023-04-07T20:13:42.535Z,5.70
2023-04-07T20:16:09.555Z,5.30
2023-04-07T20:18:36.714Z,5.50
2023-04-07T20:21:09.196Z,5.10
2023-04-07T20:23:35.984Z,5.10
2023-04-07T20:26:02.983Z,5.80
2023-04-07T20:28:30.458Z,6.60
2023-04-07T20:30:57.420Z,5.60
2023-04-07T20:33:24.334Z,5.80
2023-04-07T20:35:51.932Z,5.40
2023-04-07T20:38:19.562Z,6.00
2023-04-07T20:40:46.660Z,5.60
2023-04-07T20:43:14.565Z,5.50
2023-04-07T20:45:41.778Z,5.90
2023-04-07T20:48:08.748Z,6.20
2023-04-07T20:50:35.980Z,6.80
2023-04-07T20:53:06.401Z,7.90
2023-04-07T20:55:33.987Z,8.30
2023-04-07T20:58:00.762Z,9.30
2023-04-07T21:00:28.628Z,8.80
2023-04-07T21:02:56.755Z,9.90
2023-04-07T21:05:23.775Z,10.60
2023-04-07T21:07:50.508Z,10.80
2023-04-07T21:10:17.470Z,11.30
2023-04-07T21:12:44.234Z,10.50
2023-04-07T21:15:17.284Z,11.20
2023-04-07T21:17:45.480Z,9.80
2023-04-07T21:20:12.331Z,9.60
2023-04-07T21:22:42.308Z,9.00
2023-04-07T21:25:09.268Z,9.20
2023-04-07T21:27:37.620Z,9.20
2023-04-07T21:30:05.934Z,9.50
2023-04-07T21:32:33.284Z,9.40
2023-04-07T21:35:00.247Z,10.00
2023-04-07T21:37:27.244Z,9.30
2023-04-07T21:39:54.105Z,9.40
2023-04-07T21:42:21.900Z,8.50
2023-04-07T21:44:48.734Z,8.60
2023-04-07T21:47:16.990Z,9.00
2023-04-07T21:49:43.683Z,8.90
2023-04-07T21:52:10.786Z,9.60
2023-04-07T21:54:38.916Z,8.90
2023-04-07T21:57:07.884Z,8.60
2023-04-07T21:59:36.550Z,9.50
2023-04-07T22:02:03.951Z,9.50
2023-04-07T22:04:31.379Z,9.40
2023-04-07T22:06:58.577Z,8.40
2023-04-07T22:09:26.554Z,9.50
2023-04-07T22:11:59.995Z,8.70
2023-04-07T22:14:26.767Z,8.80
2023-04-07T22:16:53.526Z,8.70
2023-04-07T22:19:27.746Z,9.50
2023-04-07T22:21:54.903Z,8.00
2023-04-07T22:24:21.814Z,8.20
2023-04-07T22:26:53.369Z,6.90
2023-04-07T22:29:20.812Z,7.80
2023-04-07T22:31:47.984Z,6.20
2023-04-07T22:34:15.780Z,6.70
2023-04-07T22:36:42.547Z,7.90
2023-04-07T22:39:09.499Z,7.10
2023-04-07T22:41:36.854Z,7.30
2023-04-07T22:44:07.939Z,7.60
2023-04-07T22:46:35.280Z,7.00
2023-04-07T22:49:02.288Z,7.60
2023-04-07T22:51:29.517Z,8.00
2023-04-07T22:53:56.587Z,6.60
2023-04-07T22:56:27.635Z,7.50
2023-04-07T22:58:54.624Z,8.00
2023-04-07T23:01:21.558Z,7.20
2023-04-07T23:03:48.872Z,6.40
2023-04-07T23:08:48.830Z,8.40
2023-04-07T23:11:17.112Z,7.50
2023-04-07T23:13:45.758Z,9.40
2023-04-07T23:16:14.961Z,9.50
2023-04-07T23:18:43.829Z,10.80
2023-04-07T23:21:12.087Z,10.80
2023-04-07T23:23:40.689Z,11.50
2023-04-07T23:26:08.644Z,11.60
2023-04-07T23:28:36.827Z,12.60
2023-04-07T23:31:06.702Z,12.20
2023-04-07T23:33:35.246Z,13.40
2023-04-07T23:36:28.999Z,14.00
2023-04-07T23:38:57.123Z,13.20
2023-04-07T23:41:25.603Z,14.40
2023-04-07T23:43:53.740Z,13.10
2023-04-07T23:46:21.926Z,12.60
2023-04-07T23:48:51.073Z,12.80
2023-04-07T23:51:19.771Z,13.40
2023-04-07T23:53:47.796Z,13.40
2023-04-07T23:56:16.275Z,13.30
2023-04-07T23:58:44.380Z,13.60
